Doblas, Argentina
Current Conditions -  °F | °C
As of 6:00 PM on Tuesday 25 Nov 2014 (Local Time) from SAZN Reporting Station
Clear Clear  
Wind Chill: 81°   Ceiling: Unl
Heat Index: 81°   Visibility: 6mi
Dew Point: 28°   Wind: 7mph
Humidity: 15%   Direction: 270°W
Pressure: 29.8"   Gusts: NA
Location:  37.16°S, 63.72°W
Report Text: SAZN 252100Z 27006KT CAVOK 27/M02 Q1009
Loading
Personal Weather Stations






























Interactive Weather Map New forecast layout! Learn more

10-Day Weather Forecast

Advertisements
Track Severe Weather on mobile